createdAt,value
2022-10-16T00:07:43.257Z,11.88
2022-10-16T00:15:48.570Z,11.80
2022-10-16T00:24:00.295Z,11.60
2022-10-16T00:32:05.682Z,11.20
2022-10-16T00:40:14.707Z,13.38
2022-10-16T00:48:20.010Z,12.40
2022-10-16T00:56:27.901Z,13.07
2022-10-16T01:04:38.815Z,12.20
2022-10-16T01:12:53.205Z,13.25
2022-10-16T01:21:03.477Z,13.90
2022-10-16T01:29:15.346Z,11.55
2022-10-16T01:37:29.443Z,9.60
2022-10-16T01:45:38.792Z,7.80
2022-10-16T01:53:45.614Z,7.32
2022-10-16T02:01:57.135Z,7.28
2022-10-16T02:10:04.341Z,8.00
2022-10-16T02:18:14.288Z,7.55
2022-10-16T02:26:29.403Z,7.28
2022-10-16T02:34:38.264Z,8.50
2022-10-16T02:42:44.887Z,7.82
2022-10-16T02:50:52.917Z,8.00
2022-10-16T02:58:59.368Z,7.40
2022-10-16T03:07:07.758Z,8.10
2022-10-16T03:15:13.908Z,8.50
2022-10-16T03:23:21.849Z,7.95
2022-10-16T03:31:27.172Z,7.85
2022-10-16T03:39:35.190Z,8.30
2022-10-16T03:47:41.068Z,8.63
2022-10-16T03:55:49.059Z,7.53
2022-10-16T04:03:54.376Z,8.93
2022-10-16T04:12:02.293Z,7.60
2022-10-16T04:20:08.857Z,8.65
2022-10-16T04:28:16.905Z,9.35
2022-10-16T04:36:24.298Z,9.15
2022-10-16T04:44:34.735Z,9.05
2022-10-16T04:52:40.050Z,8.90
2022-10-16T05:00:48.310Z,8.60
2022-10-16T05:08:53.639Z,9.32
2022-10-16T05:17:01.528Z,9.07
2022-10-16T05:25:07.452Z,8.40
2022-10-16T05:33:15.403Z,8.93
2022-10-16T05:41:22.796Z,9.25
2022-10-16T05:49:30.861Z,8.10
2022-10-16T05:57:36.206Z,7.82
2022-10-16T06:05:44.147Z,8.77
2022-10-16T06:13:52.755Z,7.95
2022-10-16T06:22:01.352Z,7.72
2022-10-16T06:30:07.245Z,8.27
2022-10-16T06:38:15.204Z,8.38
2022-10-16T06:46:23.288Z,7.60
2022-10-16T06:54:36.439Z,7.95
2022-10-16T07:02:47.694Z,7.32
2022-10-16T07:11:02.607Z,6.85
2022-10-16T07:19:08.559Z,7.28
2022-10-16T07:27:17.795Z,6.10
2022-10-16T07:35:23.378Z,7.88
2022-10-16T07:43:32.003Z,7.28
2022-10-16T07:51:39.526Z,7.03
2022-10-16T07:59:47.451Z,5.93
2022-10-16T08:07:53.325Z,6.53
2022-10-16T08:16:01.334Z,5.57
2022-10-16T08:24:06.886Z,6.93
2022-10-16T08:32:14.834Z,6.03
2022-10-16T08:40:29.150Z,6.53
2022-10-16T08:48:46.051Z,6.47
2022-10-16T08:56:53.136Z,6.30
2022-10-16T09:05:15.533Z,5.28
2022-10-16T09:13:27.577Z,5.83
2022-10-16T09:21:39.349Z,5.95
2022-10-16T09:29:44.790Z,5.40
2022-10-16T09:37:55.270Z,4.80
2022-10-16T09:46:01.820Z,5.05
2022-10-16T09:54:21.363Z,4.60
2022-10-16T10:02:33.339Z,5.20
2022-10-16T10:10:45.719Z,5.00
2022-10-16T10:19:04.075Z,4.65
2022-10-16T10:27:18.769Z,4.50
2022-10-16T10:35:32.812Z,4.88
2022-10-16T10:43:54.655Z,4.57
2022-10-16T10:52:12.953Z,5.23
2022-10-16T11:00:29.179Z,5.13
2022-10-16T11:08:39.765Z,5.57
2022-10-16T11:16:55.913Z,5.78
2022-10-16T11:25:09.982Z,5.30
2022-10-16T11:33:29.032Z,5.07
2022-10-16T11:41:39.634Z,5.55
2022-10-16T11:49:49.882Z,5.25
2022-10-16T11:57:59.318Z,4.43
2022-10-16T12:06:27.696Z,4.85
2022-10-16T12:15:03.941Z,4.95
2022-10-16T12:23:10.979Z,5.18
2022-10-16T12:31:16.454Z,5.28
2022-10-16T12:39:28.976Z,5.05
2022-10-16T12:47:51.348Z,4.13
2022-10-16T12:56:19.577Z,4.00
2022-10-16T13:04:35.877Z,4.50
2022-10-16T13:13:17.475Z,4.65
2022-10-16T13:21:45.675Z,4.00
2022-10-16T13:29:58.686Z,4.57
2022-10-16T13:38:18.820Z,4.07
2022-10-16T13:46:28.301Z,3.60
2022-10-16T13:54:34.817Z,4.80
2022-10-16T14:02:44.564Z,4.30
2022-10-16T14:10:53.454Z,5.18
2022-10-16T14:19:06.567Z,4.78
2022-10-16T14:27:31.719Z,4.32
2022-10-16T14:35:42.894Z,4.47
2022-10-16T14:43:50.079Z,4.22
2022-10-16T14:52:01.780Z,5.47
2022-10-16T15:00:10.914Z,5.53
2022-10-16T15:08:18.792Z,5.07
2022-10-16T15:16:24.056Z,5.60
2022-10-16T15:24:35.097Z,5.43
2022-10-16T15:32:40.384Z,5.88
2022-10-16T15:40:49.481Z,6.07
2022-10-16T15:48:59.630Z,13.38
2022-10-16T15:57:07.609Z,8.95
2022-10-16T16:05:14.429Z,8.40
2022-10-16T16:13:22.734Z,6.82
2022-10-16T16:21:31.226Z,8.02
2022-10-16T16:29:39.551Z,8.95
2022-10-16T16:37:45.048Z,9.85
2022-10-16T16:45:52.944Z,10.52
2022-10-16T16:53:59.199Z,10.75
2022-10-16T17:02:07.831Z,13.07
2022-10-16T17:10:15.675Z,12.98
2022-10-16T17:18:24.746Z,13.27
2022-10-16T17:26:30.396Z,14.20
2022-10-16T17:34:38.498Z,14.13
2022-10-16T17:42:43.805Z,14.13
2022-10-16T17:50:51.799Z,13.70
2022-10-16T17:58:59.961Z,13.73
2022-10-16T18:07:07.966Z,16.58
2022-10-16T18:15:14.044Z,15.73
2022-10-16T18:23:25.055Z,17.33
2022-10-16T18:31:30.432Z,18.70
2022-10-16T18:39:38.420Z,15.25
2022-10-16T18:47:43.747Z,17.38
2022-10-16T18:55:57.304Z,16.30
2022-10-16T19:04:05.313Z,15.18
2022-10-16T19:12:13.471Z,14.77
2022-10-16T19:20:19.184Z,15.93
2022-10-16T19:28:27.308Z,15.77
2022-10-16T19:36:34.538Z,16.40
2022-10-16T19:44:42.675Z,13.95
2022-10-16T19:52:48.307Z,13.90
2022-10-16T20:00:57.138Z,12.63
2022-10-16T20:09:03.184Z,12.57
2022-10-16T20:17:11.115Z,13.25
2022-10-16T20:25:19.122Z,12.80
2022-10-16T20:33:27.676Z,13.95
2022-10-16T20:41:33.023Z,15.20
2022-10-16T20:49:41.243Z,17.10
2022-10-16T20:57:46.569Z,17.55
2022-10-16T21:05:56.560Z,16.35
2022-10-16T21:14:07.308Z,15.07
2022-10-16T21:22:15.439Z,15.10
2022-10-16T21:30:20.895Z,15.15
2022-10-16T21:38:29.262Z,13.93
2022-10-16T21:46:36.369Z,15.00
2022-10-16T21:54:44.377Z,14.90
2022-10-16T22:02:49.714Z,16.40
2022-10-16T22:10:57.625Z,16.10
2022-10-16T22:19:03.735Z,16.88
2022-10-16T22:27:11.639Z,15.63
2022-10-16T22:35:17.089Z,17.77
2022-10-16T22:43:24.984Z,19.50
2022-10-16T22:51:31.988Z,19.27
2022-10-16T22:59:39.869Z,19.98
2022-10-16T23:07:46.590Z,19.27
2022-10-16T23:15:54.602Z,16.75
2022-10-16T23:23:59.889Z,15.57
2022-10-16T23:32:08.076Z,13.43
2022-10-16T23:40:14.415Z,13.23
2022-10-16T23:48:22.403Z,12.32
2022-10-16T23:56:27.688Z,12.32
